createdAt,value
2019-02-21T00:02:18.912Z,7.22
2019-02-21T00:04:51.165Z,7.70
2019-02-21T00:07:23.623Z,6.92
2019-02-21T00:09:55.868Z,7.20
2019-02-21T00:12:28.112Z,7.62
2019-02-21T00:15:00.367Z,7.03
2019-02-21T00:17:32.611Z,7.30
2019-02-21T00:20:05.193Z,7.17
2019-02-21T00:22:37.428Z,7.28
2019-02-21T00:25:09.693Z,7.03
2019-02-21T00:27:41.930Z,7.85
2019-02-21T00:30:14.178Z,6.80
2019-02-21T00:32:46.466Z,7.60
2019-02-21T00:35:18.711Z,7.08
2019-02-21T00:37:50.968Z,8.30
2019-02-21T00:40:23.206Z,6.95
2019-02-21T00:42:55.456Z,7.15
2019-02-21T00:45:27.693Z,7.37
2019-02-21T00:47:59.932Z,7.67
2019-02-21T00:50:32.187Z,7.72
2019-02-21T00:53:04.867Z,7.38
2019-02-21T00:55:37.122Z,7.20
2019-02-21T00:58:09.363Z,7.35
2019-02-21T01:00:46.634Z,8.03
2019-02-21T01:03:15.606Z,7.65
2019-02-21T01:05:47.869Z,6.65
2019-02-21T01:08:20.107Z,7.33
2019-02-21T01:10:52.343Z,8.23
2019-02-21T01:13:24.652Z,7.85
2019-02-21T01:15:56.896Z,8.13
2019-02-21T01:18:29.132Z,7.28
2019-02-21T01:21:01.374Z,8.45
2019-02-21T01:23:33.629Z,8.58
2019-02-21T01:26:06.356Z,8.38
2019-02-21T01:28:38.586Z,8.65
2019-02-21T01:31:10.837Z,8.78
2019-02-21T01:33:43.074Z,8.98
2019-02-21T01:36:15.312Z,9.53
2019-02-21T01:38:47.560Z,8.98
2019-02-21T01:41:19.812Z,9.93
2019-02-21T01:43:52.048Z,9.65
2019-02-21T01:46:24.315Z,9.73
2019-02-21T01:48:56.587Z,10.00
2019-02-21T01:51:28.842Z,9.80
2019-02-21T01:54:01.084Z,9.38
2019-02-21T01:56:33.323Z,10.30
2019-02-21T01:59:05.591Z,9.70
2019-02-21T02:01:37.829Z,8.95
2019-02-21T02:04:10.212Z,10.38
2019-02-21T02:06:42.463Z,9.88
2019-02-21T02:09:14.726Z,9.60
2019-02-21T02:11:46.960Z,8.95
2019-02-21T02:14:19.224Z,9.18
2019-02-21T02:16:51.469Z,9.60
2019-02-21T02:19:23.732Z,10.50
2019-02-21T02:21:56.082Z,9.00
2019-02-21T02:24:28.338Z,9.48
2019-02-21T02:27:00.565Z,9.73
2019-02-21T02:29:32.815Z,9.73
2019-02-21T02:32:05.071Z,11.33
2019-02-21T02:34:37.329Z,10.50
2019-02-21T02:37:09.574Z,10.63
2019-02-21T02:39:41.843Z,10.65
2019-02-21T02:42:14.208Z,10.40
2019-02-21T02:44:46.481Z,12.20
2019-02-21T02:47:18.712Z,12.65
2019-02-21T02:49:51.080Z,12.40
2019-02-21T02:52:23.406Z,12.23
2019-02-21T02:54:55.737Z,12.37
2019-02-21T02:57:27.964Z,9.93
2019-02-21T03:00:00.437Z,10.05
2019-02-21T03:02:32.826Z,11.48
2019-02-21T03:05:06.416Z,10.93
2019-02-21T03:07:38.658Z,12.25
2019-02-21T03:10:11.725Z,9.53
2019-02-21T03:12:43.946Z,11.00
2019-02-21T03:15:16.232Z,11.18
2019-02-21T03:17:48.450Z,9.68
2019-02-21T03:20:20.727Z,12.20
2019-02-21T03:22:52.980Z,10.13
2019-02-21T03:25:25.255Z,11.80
2019-02-21T03:27:57.476Z,9.45
2019-02-21T03:30:29.716Z,9.78
2019-02-21T03:33:01.978Z,10.68
2019-02-21T03:35:34.234Z,10.32
2019-02-21T03:38:06.464Z,10.45
2019-02-21T03:40:39.054Z,11.53
2019-02-21T03:43:11.367Z,10.23
2019-02-21T03:45:43.632Z,11.57
2019-02-21T03:48:15.894Z,10.58
2019-02-21T03:50:48.137Z,9.85
2019-02-21T03:53:20.379Z,11.40
2019-02-21T03:55:52.712Z,10.55
2019-02-21T03:58:24.971Z,10.88
2019-02-21T04:00:57.220Z,10.43
2019-02-21T04:03:29.459Z,10.78
2019-02-21T04:06:01.703Z,11.08
2019-02-21T04:08:34.041Z,12.30
2019-02-21T04:11:06.284Z,10.58
2019-02-21T04:13:38.553Z,11.05
2019-02-21T04:16:10.799Z,10.45
2019-02-21T04:18:43.060Z,11.43
2019-02-21T04:21:15.308Z,10.95
2019-02-21T04:23:47.571Z,11.30
2019-02-21T04:26:19.821Z,10.05
2019-02-21T04:28:52.084Z,9.95
2019-02-21T04:31:24.326Z,10.32
2019-02-21T04:33:56.586Z,10.45
2019-02-21T04:36:28.833Z,10.85
2019-02-21T04:39:01.093Z,12.18
2019-02-21T04:41:33.339Z,10.13
2019-02-21T04:44:06.029Z,10.58
2019-02-21T04:46:38.786Z,11.30
2019-02-21T04:49:11.039Z,10.15
2019-02-21T04:51:43.342Z,10.53
2019-02-21T04:54:15.592Z,10.95
2019-02-21T04:56:47.855Z,10.85
2019-02-21T04:59:20.096Z,11.30
2019-02-21T05:01:52.336Z,10.82
2019-02-21T05:04:24.588Z,10.75
2019-02-21T05:06:56.848Z,10.95
2019-02-21T05:09:29.121Z,11.25
2019-02-21T05:12:01.382Z,11.48
2019-02-21T05:14:33.616Z,10.93
2019-02-21T05:17:05.991Z,11.80
2019-02-21T05:19:38.244Z,12.00
2019-02-21T05:22:10.482Z,11.75
2019-02-21T05:24:42.716Z,11.38
2019-02-21T05:27:16.599Z,11.75
2019-02-21T05:29:49.026Z,11.65
2019-02-21T05:32:40.179Z,10.95
2019-02-21T05:35:04.239Z,10.32
2019-02-21T05:37:54.613Z,10.53
2019-02-21T05:40:31.330Z,11.48
2019-02-21T05:43:20.034Z,10.50
2019-02-21T05:46:09.021Z,11.35
2019-02-21T05:48:42.911Z,10.35
2019-02-21T05:51:16.793Z,10.60
2019-02-21T05:53:50.703Z,11.08
2019-02-21T05:56:33.542Z,9.98
2019-02-21T05:59:07.426Z,10.60
2019-02-21T06:01:41.307Z,11.12
2019-02-21T06:04:15.226Z,10.23
2019-02-21T06:07:05.160Z,11.10
2019-02-21T06:09:39.023Z,10.67
2019-02-21T06:12:13.043Z,11.97
2019-02-21T06:14:49.940Z,11.33
2019-02-21T06:17:23.835Z,11.18
2019-02-21T06:19:57.725Z,11.30
2019-02-21T06:22:37.558Z,11.40
2019-02-21T06:25:29.988Z,10.45
2019-02-21T06:28:09.256Z,10.58
2019-02-21T06:30:43.432Z,11.75
2019-02-21T06:33:15.752Z,10.98
2019-02-21T06:35:48.005Z,11.68
2019-02-21T06:38:20.588Z,10.22
2019-02-21T06:40:52.845Z,11.83
2019-02-21T06:43:25.103Z,11.70
2019-02-21T06:45:58.104Z,11.15
2019-02-21T06:48:30.489Z,11.53
2019-02-21T06:51:02.722Z,12.05
2019-02-21T06:53:34.971Z,11.57
2019-02-21T06:56:07.224Z,11.38
2019-02-21T06:58:41.990Z,11.25
2019-02-21T07:01:13.520Z,12.40
2019-02-21T07:03:45.949Z,11.78
2019-02-21T07:06:19.216Z,12.58
2019-02-21T07:08:54.078Z,12.05
2019-02-21T07:11:25.731Z,12.45
2019-02-21T07:13:57.999Z,12.50
2019-02-21T07:16:30.237Z,10.30
2019-02-21T07:19:02.523Z,10.78
2019-02-21T07:21:36.504Z,10.48
2019-02-21T07:24:08.796Z,12.65
2019-02-21T07:26:42.761Z,10.37
2019-02-21T07:29:15.240Z,11.30
2019-02-21T07:31:49.313Z,12.05
2019-02-21T07:34:21.485Z,12.65
2019-02-21T07:36:53.737Z,13.32
2019-02-21T07:39:35.621Z,12.28
2019-02-21T07:42:00.165Z,11.78
2019-02-21T07:44:32.412Z,11.63
2019-02-21T07:47:04.666Z,10.95
2019-02-21T07:49:37.019Z,11.07
2019-02-21T07:52:09.270Z,11.78
2019-02-21T07:54:41.536Z,10.82
2019-02-21T07:57:13.862Z,11.38
2019-02-21T07:59:46.131Z,12.20
2019-02-21T08:02:20.851Z,11.65
2019-02-21T08:04:52.423Z,11.83
2019-02-21T08:07:26.332Z,11.55
2019-02-21T08:09:58.841Z,11.53
2019-02-21T08:12:31.085Z,11.88
2019-02-21T08:15:03.718Z,12.18
2019-02-21T08:17:36.031Z,12.63
2019-02-21T08:20:09.461Z,11.12
2019-02-21T08:22:41.718Z,11.50
2019-02-21T08:25:14.036Z,12.47
2019-02-21T08:27:46.304Z,12.55
2019-02-21T08:30:18.567Z,11.70
2019-02-21T08:33:01.604Z,11.97
2019-02-21T08:35:33.847Z,11.43
2019-02-21T08:38:06.076Z,11.33
2019-02-21T08:40:38.333Z,10.45
2019-02-21T08:43:10.574Z,12.25
2019-02-21T08:45:42.852Z,11.65
2019-02-21T08:48:15.154Z,10.23
2019-02-21T08:50:47.406Z,11.93
2019-02-21T08:53:19.643Z,12.15
2019-02-21T08:55:51.917Z,12.90
2019-02-21T08:58:24.191Z,12.28
2019-02-21T09:00:56.568Z,11.08
2019-02-21T09:03:28.792Z,13.68
2019-02-21T09:06:01.141Z,12.80
2019-02-21T09:08:36.979Z,11.25
2019-02-21T09:11:07.423Z,11.85
2019-02-21T09:13:41.620Z,12.18
2019-02-21T09:16:13.717Z,11.55
2019-02-21T09:18:45.972Z,10.80
2019-02-21T09:21:18.230Z,11.10
2019-02-21T09:23:50.463Z,13.00
2019-02-21T09:26:22.748Z,14.15
2019-02-21T09:28:54.984Z,12.75
2019-02-21T09:31:27.323Z,13.08
2019-02-21T09:33:59.578Z,14.25
2019-02-21T09:36:31.847Z,14.33
2019-02-21T09:39:04.964Z,13.60
2019-02-21T09:41:37.192Z,14.23
2019-02-21T09:44:10.394Z,15.30
2019-02-21T09:46:42.649Z,14.47
2019-02-21T09:49:14.891Z,14.35
2019-02-21T09:51:47.118Z,14.67
2019-02-21T09:54:20.389Z,14.23
2019-02-21T09:56:53.307Z,13.25
2019-02-21T09:59:25.692Z,14.85
2019-02-21T10:01:57.942Z,14.18
2019-02-21T10:04:32.418Z,13.60
2019-02-21T10:07:04.153Z,13.48
2019-02-21T10:09:36.485Z,15.03
2019-02-21T10:12:08.737Z,15.78
2019-02-21T10:14:40.978Z,15.08
2019-02-21T10:17:13.249Z,15.60
2019-02-21T10:19:45.670Z,14.90
2019-02-21T10:22:18.822Z,15.05
2019-02-21T10:24:51.065Z,14.10
2019-02-21T10:27:24.299Z,13.00
2019-02-21T10:29:56.524Z,15.20
2019-02-21T10:32:28.868Z,14.85
2019-02-21T10:35:01.236Z,15.15
2019-02-21T10:37:33.481Z,14.85
2019-02-21T10:40:09.680Z,14.55
2019-02-21T10:42:42.113Z,15.67
2019-02-21T10:45:15.435Z,15.15
2019-02-21T10:47:47.936Z,15.65
2019-02-21T10:50:20.331Z,13.75
2019-02-21T10:52:52.583Z,15.70
2019-02-21T10:55:24.816Z,14.93
2019-02-21T10:57:57.090Z,16.37
2019-02-21T11:00:29.951Z,14.33
2019-02-21T11:03:02.215Z,16.10
2019-02-21T11:05:34.448Z,15.68
2019-02-21T11:08:06.699Z,16.52
2019-02-21T11:10:39.043Z,16.37
2019-02-21T11:13:11.300Z,17.07
2019-02-21T11:15:43.537Z,15.60
2019-02-21T11:18:15.879Z,17.23
2019-02-21T11:20:48.113Z,16.52
2019-02-21T11:23:20.388Z,17.67
2019-02-21T11:25:52.630Z,16.17
2019-02-21T11:28:24.896Z,16.55
2019-02-21T11:30:57.124Z,17.23
2019-02-21T11:33:29.447Z,16.17
2019-02-21T11:36:01.824Z,16.30
2019-02-21T11:38:34.516Z,15.18
2019-02-21T11:41:06.840Z,17.32
2019-02-21T11:43:39.249Z,16.77
2019-02-21T11:46:11.499Z,16.50
2019-02-21T11:48:43.775Z,16.52
2019-02-21T11:51:16.053Z,16.70
2019-02-21T11:53:48.439Z,18.92
2019-02-21T11:56:20.756Z,18.00
2019-02-21T11:58:53.016Z,15.72
2019-02-21T12:01:25.459Z,18.77
2019-02-21T12:03:57.863Z,17.48
2019-02-21T12:06:30.145Z,15.83
2019-02-21T12:09:02.371Z,15.63
2019-02-21T12:11:34.724Z,14.68
2019-02-21T12:14:07.014Z,15.65
2019-02-21T12:16:39.370Z,16.45
2019-02-21T12:19:11.623Z,14.58
2019-02-21T12:21:43.859Z,14.80
2019-02-21T12:24:16.115Z,16.32
2019-02-21T12:26:48.455Z,16.73
2019-02-21T12:29:20.699Z,15.70
2019-02-21T12:31:52.949Z,14.43
2019-02-21T12:34:25.191Z,16.30
2019-02-21T12:36:57.438Z,15.15
2019-02-21T12:39:30.695Z,12.93
2019-02-21T12:42:02.985Z,14.33
2019-02-21T12:44:35.244Z,15.40
2019-02-21T12:47:07.471Z,14.55
2019-02-21T12:49:39.713Z,13.95
2019-02-21T12:52:11.978Z,13.25
2019-02-21T12:54:44.230Z,12.78
2019-02-21T12:57:16.510Z,13.68
2019-02-21T12:59:48.764Z,13.00
2019-02-21T13:02:21.008Z,13.68
2019-02-21T13:04:53.267Z,15.10
2019-02-21T13:07:25.523Z,15.13
2019-02-21T13:09:57.767Z,13.72
2019-02-21T13:12:30.014Z,12.85
2019-02-21T13:15:02.305Z,12.80
2019-02-21T13:17:34.543Z,14.80
2019-02-21T13:20:08.067Z,14.00
2019-02-21T13:22:40.329Z,15.58
2019-02-21T13:25:16.161Z,15.13
2019-02-21T13:27:48.588Z,16.03
2019-02-21T13:30:20.841Z,14.73
2019-02-21T13:32:53.071Z,13.40
2019-02-21T13:35:25.343Z,13.45
2019-02-21T13:37:57.593Z,15.05
2019-02-21T13:40:30.016Z,14.55
2019-02-21T13:43:02.271Z,15.75
2019-02-21T13:45:34.517Z,15.10
2019-02-21T13:48:06.758Z,15.75
2019-02-21T13:50:39.014Z,15.43
2019-02-21T13:53:11.244Z,14.55
2019-02-21T13:55:43.509Z,13.78
2019-02-21T13:58:15.821Z,14.68
2019-02-21T14:00:48.176Z,13.98
2019-02-21T14:03:20.406Z,14.30
2019-02-21T14:06:02.964Z,15.83
2019-02-21T14:08:26.632Z,15.85
2019-02-21T14:10:58.899Z,15.43
2019-02-21T14:13:31.136Z,13.90
2019-02-21T14:16:03.405Z,16.77
2019-02-21T14:18:35.648Z,15.32
2019-02-21T14:21:07.919Z,21.95
2019-02-21T14:23:40.142Z,18.20
2019-02-21T14:26:12.434Z,18.27
2019-02-21T14:28:44.681Z,20.10
2019-02-21T14:31:16.959Z,20.57
2019-02-21T14:33:51.812Z,18.82
2019-02-21T14:36:24.223Z,19.00
2019-02-21T14:38:56.494Z,16.62
2019-02-21T14:41:28.752Z,18.87
2019-02-21T14:44:01.017Z,16.15
2019-02-21T14:46:33.546Z,16.85
2019-02-21T14:49:05.802Z,17.32
2019-02-21T14:51:38.080Z,19.00
2019-02-21T14:54:10.350Z,17.17
2019-02-21T14:56:43.335Z,20.48
2019-02-21T14:59:15.580Z,20.25
2019-02-21T15:01:48.001Z,17.95
2019-02-21T15:04:20.257Z,18.23
2019-02-21T15:06:52.495Z,19.10
2019-02-21T15:09:24.879Z,18.60
2019-02-21T15:11:57.142Z,18.05
2019-02-21T15:14:29.399Z,19.30
2019-02-21T15:17:03.743Z,20.45
2019-02-21T15:19:35.623Z,19.87
2019-02-21T15:22:07.870Z,19.00
2019-02-21T15:24:40.108Z,21.02
2019-02-21T15:27:12.376Z,19.80
2019-02-21T15:29:44.910Z,20.55
2019-02-21T15:32:17.169Z,20.20
2019-02-21T15:34:49.461Z,19.75
2019-02-21T15:37:21.739Z,20.88
2019-02-21T15:39:53.968Z,20.17
2019-02-21T15:42:26.273Z,18.85
2019-02-21T15:44:58.508Z,20.08
2019-02-21T15:47:30.774Z,19.82
2019-02-21T15:50:03.303Z,20.40
2019-02-21T15:52:35.538Z,19.55
2019-02-21T15:55:12.399Z,19.27
2019-02-21T15:57:43.057Z,20.35
2019-02-21T16:00:16.936Z,21.00
2019-02-21T16:02:49.179Z,20.82
2019-02-21T16:05:21.440Z,20.17
2019-02-21T16:07:53.715Z,20.02
2019-02-21T16:10:26.649Z,19.87
2019-02-21T16:12:59.464Z,21.87
2019-02-21T16:15:31.824Z,20.00
2019-02-21T16:18:04.908Z,19.80
2019-02-21T16:20:37.187Z,19.92
2019-02-21T16:23:11.406Z,19.40
2019-02-21T16:25:43.451Z,18.65
2019-02-21T16:28:15.682Z,18.77
2019-02-21T16:30:48.069Z,18.60
2019-02-21T16:33:20.487Z,18.52
2019-02-21T16:35:52.796Z,19.23
2019-02-21T16:38:25.095Z,18.20
2019-02-21T16:40:57.339Z,17.48
2019-02-21T16:43:29.635Z,18.00
2019-02-21T16:46:07.882Z,18.32
2019-02-21T16:48:36.008Z,18.23
2019-02-21T16:51:08.228Z,17.80
2019-02-21T16:53:40.495Z,16.12
2019-02-21T16:56:13.440Z,18.02
2019-02-21T16:58:45.765Z,18.32
2019-02-21T17:01:18.007Z,16.85
2019-02-21T17:03:50.278Z,16.80
2019-02-21T17:06:22.524Z,16.45
2019-02-21T17:08:54.818Z,16.07
2019-02-21T17:11:27.047Z,17.10
2019-02-21T17:13:59.300Z,16.35
2019-02-21T17:16:31.544Z,16.05
2019-02-21T17:19:03.828Z,17.25
2019-02-21T17:21:36.148Z,15.95
2019-02-21T17:24:08.408Z,16.80
2019-02-21T17:26:40.708Z,16.48
2019-02-21T17:29:12.965Z,16.82
2019-02-21T17:31:45.255Z,17.55
2019-02-21T17:34:17.524Z,16.10
2019-02-21T17:36:49.745Z,16.48
2019-02-21T17:39:22.009Z,15.88
2019-02-21T17:41:54.293Z,16.45
2019-02-21T17:44:26.545Z,16.32
2019-02-21T17:46:58.772Z,17.10
2019-02-21T17:49:31.921Z,16.60
2019-02-21T17:52:04.241Z,17.05
2019-02-21T17:54:36.504Z,17.80
2019-02-21T17:57:08.740Z,18.48
2019-02-21T17:59:41.000Z,17.32
2019-02-21T18:02:13.236Z,17.95
2019-02-21T18:04:45.520Z,16.75
2019-02-21T18:07:17.751Z,17.80
2019-02-21T18:09:50.009Z,17.55
2019-02-21T18:12:22.243Z,17.73
2019-02-21T18:14:54.510Z,19.73
2019-02-21T18:17:26.745Z,17.12
2019-02-21T18:19:59.000Z,17.52
2019-02-21T18:22:31.310Z,18.45
2019-02-21T18:25:05.226Z,16.75
2019-02-21T18:27:37.461Z,18.07
2019-02-21T18:30:11.503Z,17.65
2019-02-21T18:32:43.731Z,17.92
2019-02-21T18:35:16.035Z,17.45
2019-02-21T18:37:48.386Z,17.87
2019-02-21T18:40:21.810Z,17.95
2019-02-21T18:42:54.115Z,17.65
2019-02-21T18:45:26.377Z,17.00
2019-02-21T18:47:58.598Z,17.62
2019-02-21T18:50:38.143Z,17.73
2019-02-21T18:53:04.956Z,18.82
2019-02-21T18:55:37.239Z,19.17
2019-02-21T18:58:09.481Z,16.27
2019-02-21T19:00:41.735Z,17.42
2019-02-21T19:03:13.979Z,18.75
2019-02-21T19:05:46.232Z,17.62
2019-02-21T19:08:18.488Z,17.48
2019-02-21T19:10:50.759Z,18.80
2019-02-21T19:13:22.997Z,18.95
2019-02-21T19:15:55.259Z,19.32
2019-02-21T19:18:27.509Z,19.75
2019-02-21T19:20:59.799Z,20.57
2019-02-21T19:23:32.071Z,19.63
2019-02-21T19:26:04.331Z,21.62
2019-02-21T19:28:36.652Z,23.47
2019-02-21T19:31:10.497Z,20.85
2019-02-21T19:33:42.727Z,18.00
2019-02-21T19:36:15.077Z,21.57
2019-02-21T19:38:47.328Z,21.60
2019-02-21T19:41:19.673Z,21.45
2019-02-21T19:43:52.154Z,20.92
2019-02-21T19:46:24.406Z,21.95
2019-02-21T19:48:56.648Z,20.30
2019-02-21T19:51:28.928Z,21.55
2019-02-21T19:54:01.180Z,20.15
2019-02-21T19:56:33.453Z,20.00
2019-02-21T19:59:05.679Z,19.07
2019-02-21T20:01:38.037Z,18.80
2019-02-21T20:04:10.273Z,18.35
2019-02-21T20:06:42.531Z,18.62
2019-02-21T20:09:14.925Z,17.45
2019-02-21T20:11:47.271Z,18.47
2019-02-21T20:14:19.514Z,18.98
2019-02-21T20:16:51.792Z,18.90
2019-02-21T20:19:24.050Z,18.32
2019-02-21T20:21:57.200Z,19.27
2019-02-21T20:24:29.435Z,18.17
2019-02-21T20:27:01.720Z,18.07
2019-02-21T20:29:33.959Z,19.30
2019-02-21T20:32:06.283Z,18.32
2019-02-21T20:34:38.592Z,16.75
2019-02-21T20:37:10.884Z,16.07
2019-02-21T20:39:43.204Z,17.07
2019-02-21T20:42:15.484Z,16.42
2019-02-21T20:44:47.761Z,16.60
2019-02-21T20:47:20.084Z,17.00
2019-02-21T20:49:52.461Z,17.00
2019-02-21T20:52:24.726Z,19.17
2019-02-21T20:54:56.965Z,19.30
2019-02-21T20:57:29.219Z,18.85
2019-02-21T21:00:01.490Z,16.67
2019-02-21T21:02:33.828Z,19.25
2019-02-21T21:05:06.152Z,20.68
2019-02-21T21:07:38.413Z,20.05
2019-02-21T21:10:12.388Z,19.50
2019-02-21T21:12:44.738Z,18.85
2019-02-21T21:15:17.069Z,18.75
2019-02-21T21:17:49.320Z,18.73
2019-02-21T21:20:21.562Z,18.27
2019-02-21T21:22:53.813Z,18.17
2019-02-21T21:25:26.110Z,17.92
2019-02-21T21:27:58.434Z,18.98
2019-02-21T21:30:30.698Z,19.27
2019-02-21T21:33:04.175Z,17.17
2019-02-21T21:35:36.807Z,17.92
2019-02-21T21:38:09.097Z,18.42
2019-02-21T21:40:41.339Z,18.82
2019-02-21T21:43:13.605Z,20.25
2019-02-21T21:45:45.845Z,19.80
2019-02-21T21:48:18.109Z,18.37
2019-02-21T21:50:50.384Z,20.60
2019-02-21T21:53:22.775Z,21.57
2019-02-21T21:55:55.018Z,21.27
2019-02-21T21:58:27.308Z,20.02
2019-02-21T22:00:59.576Z,20.62
2019-02-21T22:03:31.806Z,20.50
2019-02-21T22:06:04.115Z,20.20
2019-02-21T22:08:36.371Z,19.65
2019-02-21T22:11:08.605Z,18.85
2019-02-21T22:13:40.853Z,19.87
2019-02-21T22:16:13.107Z,19.95
2019-02-21T22:18:45.368Z,21.02
2019-02-21T22:21:17.622Z,21.45
2019-02-21T22:23:49.879Z,21.30
2019-02-21T22:26:22.142Z,21.62
2019-02-21T22:28:54.367Z,21.05
2019-02-21T22:31:26.608Z,21.02
2019-02-21T22:33:58.875Z,21.65
2019-02-21T22:36:31.141Z,24.37
2019-02-21T22:39:15.476Z,22.80
2019-02-21T22:41:39.188Z,23.60
2019-02-21T22:44:11.460Z,22.77
2019-02-21T22:46:43.700Z,23.25
2019-02-21T22:49:16.718Z,25.65
2019-02-21T22:51:50.007Z,26.00
2019-02-21T22:54:22.268Z,25.75
2019-02-21T22:56:54.499Z,25.85
2019-02-21T22:59:26.759Z,25.85
2019-02-21T23:01:59.011Z,25.57
2019-02-21T23:04:33.666Z,23.90
2019-02-21T23:07:10.391Z,25.88
2019-02-21T23:09:42.757Z,24.35
2019-02-21T23:12:15.005Z,24.92
2019-02-21T23:14:47.251Z,25.47
2019-02-21T23:17:19.493Z,24.40
2019-02-21T23:19:51.807Z,26.48
2019-02-21T23:22:24.089Z,28.55
2019-02-21T23:24:56.337Z,30.23
2019-02-21T23:27:28.605Z,31.25
2019-02-21T23:30:00.848Z,31.42
2019-02-21T23:32:33.094Z,31.85
2019-02-21T23:35:05.605Z,30.20
2019-02-21T23:37:37.874Z,29.63
2019-02-21T23:40:10.128Z,31.55
2019-02-21T23:42:42.369Z,29.48
2019-02-21T23:45:14.636Z,30.68
2019-02-21T23:47:49.930Z,30.43
2019-02-21T23:50:20.869Z,31.35
2019-02-21T23:52:53.115Z,31.05
2019-02-21T23:55:25.393Z,31.07
2019-02-21T23:57:57.619Z,29.98
